sensor_id;sensor_type;location;lat;lon;timestamp;pressure;altitude;pressure_sealevel;temperature;humidity
49945;BME280;35838;49.134;9.212;2023-09-18T02:34:31;99199.50;;;21.28;100.00
49945;BME280;35838;49.134;9.212;2023-09-18T02:36:05;99218.81;;;21.29;100.00
49945;BME280;35838;49.134;9.212;2023-09-18T02:37:36;99226.22;;;21.22;100.00
49945;BME280;35838;49.134;9.212;2023-09-18T02:39:09;99220.78;;;21.25;100.00
49945;BME280;35838;49.134;9.212;2023-09-18T02:40:40;99221.63;;;21.26;100.00
49945;BME280;35838;49.134;9.212;2023-09-18T02:42:14;99227.47;;;21.31;100.00
49945;BME280;35838;49.134;9.212;2023-09-18T02:43:45;99222.97;;;21.33;100.00
49945;BME280;35838;49.134;9.212;2023-09-18T02:45:18;99235.88;;;21.38;100.00
49945;BME280;35838;49.134;9.212;2023-09-18T02:46:49;99231.94;;;21.45;100.00
49945;BME280;35838;49.134;9.212;2023-09-18T02:48:23;99233.44;;;21.49;100.00
49945;BME280;35838;49.134;9.212;2023-09-18T02:49:57;99223.81;;;21.48;100.00
49945;BME280;35838;49.134;9.212;2023-09-18T02:51:30;99210.81;;;21.45;100.00
49945;BME280;35838;49.134;9.212;2023-09-18T02:53:02;99222.78;;;21.36;100.00
49945;BME280;35838;49.134;9.212;2023-09-18T02:54:36;99216.06;;;21.31;100.00
49945;BME280;35838;49.134;9.212;2023-09-18T02:56:10;99222.09;;;21.33;100.00
49945;BME280;35838;49.134;9.212;2023-09-18T02:57:41;99221.53;;;21.27;100.00
49945;BME280;35838;49.134;9.212;2023-09-18T02:59:15;99221.06;;;21.35;100.00
49945;BME280;35838;49.134;9.212;2023-09-18T03:00:46;99223.72;;;21.35;100.00
49945;BME280;35838;49.134;9.212;2023-09-18T03:02:20;99223.81;;;21.34;100.00
49945;BME280;35838;49.134;9.212;2023-09-18T03:03:51;99222.50;;;21.41;100.00
49945;BME280;35838;49.134;9.212;2023-09-18T03:05:27;99211.16;;;21.39;100.00
49945;BME280;35838;49.134;9.212;2023-09-18T03:06:58;99207.59;;;21.40;100.00
49945;BME280;35838;49.134;9.212;2023-09-18T03:08:33;99201.47;;;21.39;100.00
49945;BME280;35838;49.134;9.212;2023-09-18T03:10:06;99197.91;;;21.40;100.00
49945;BME280;35838;49.134;9.212;2023-09-18T03:11:44;99193.63;;;21.38;100.00
49945;BME280;35838;49.134;9.212;2023-09-18T03:13:15;99192.69;;;21.39;100.00
49945;BME280;35838;49.134;9.212;2023-09-18T03:14:48;99193.34;;;21.28;100.00
49945;BME280;35838;49.134;9.212;2023-09-18T03:16:19;99194.94;;;21.31;100.00
49945;BME280;35838;49.134;9.212;2023-09-18T03:17:53;99190.25;;;21.36;100.00
49945;BME280;35838;49.134;9.212;2023-09-18T03:19:24;99178.00;;;21.35;100.00
49945;BME280;35838;49.134;9.212;2023-09-18T03:21:00;99182.78;;;21.28;100.00
49945;BME280;35838;49.134;9.212;2023-09-18T03:22:31;99178.19;;;21.32;100.00
49945;BME280;35838;49.134;9.212;2023-09-18T03:24:05;99163.09;;;21.34;100.00
49945;BME280;35838;49.134;9.212;2023-09-18T03:25:36;99158.22;;;21.27;100.00
49945;BME280;35838;49.134;9.212;2023-09-18T03:27:10;99159.81;;;21.30;100.00
49945;BME280;35838;49.134;9.212;2023-09-18T03:28:41;99164.91;;;21.33;100.00
49945;BME280;35838;49.134;9.212;2023-09-18T03:30:15;99160.66;;;21.31;100.00
49945;BME280;35838;49.134;9.212;2023-09-18T03:31:46;99159.44;;;21.36;100.00
49945;BME280;35838;49.134;9.212;2023-09-18T03:33:20;99155.03;;;21.37;100.00
49945;BME280;35838;49.134;9.212;2023-09-18T03:34:51;99163.66;;;21.39;100.00
49945;BME280;35838;49.134;9.212;2023-09-18T03:36:27;99161.03;;;21.39;100.00
49945;BME280;35838;49.134;9.212;2023-09-18T03:38:00;99156.22;;;21.31;100.00
49945;BME280;35838;49.134;9.212;2023-09-18T03:39:33;99137.47;;;21.36;100.00
49945;BME280;35838;49.134;9.212;2023-09-18T03:41:06;99132.00;;;21.39;100.00
49945;BME280;35838;49.134;9.212;2023-09-18T03:42:40;99130.00;;;21.42;100.00
49945;BME280;35838;49.134;9.212;2023-09-18T03:44:11;99132.66;;;21.42;100.00
49945;BME280;35838;49.134;9.212;2023-09-18T03:45:45;99135.13;;;21.45;100.00
49945;BME280;35838;49.134;9.212;2023-09-18T03:47:16;99134.94;;;21.49;100.00
49945;BME280;35838;49.134;9.212;2023-09-18T03:48:50;99141.53;;;21.56;100.00
49945;BME280;35838;49.134;9.212;2023-09-18T03:50:21;99146.25;;;21.51;100.00
49945;BME280;35838;49.134;9.212;2023-09-18T03:51:57;99169.03;;;21.52;100.00
49945;BME280;35838;49.134;9.212;2023-09-18T03:53:28;99194.06;;;21.46;100.00
49945;BME280;35838;49.134;9.212;2023-09-18T03:55:02;99212.69;;;21.43;100.00
49945;BME280;35838;49.134;9.212;2023-09-18T03:56:33;99210.44;;;21.51;100.00
49945;BME280;35838;49.134;9.212;2023-09-18T03:58:06;99231.56;;;21.51;100.00
49945;BME280;35838;49.134;9.212;2023-09-18T03:59:37;99219.69;;;21.44;100.00
49945;BME280;35838;49.134;9.212;2023-09-18T04:01:11;99223.09;;;21.46;100.00
49945;BME280;35838;49.134;9.212;2023-09-18T04:02:42;99223.53;;;21.53;100.00
49945;BME280;35838;49.134;9.212;2023-09-18T04:04:15;99230.72;;;21.51;100.00
49945;BME280;35838;49.134;9.212;2023-09-18T04:05:49;99238.53;;;21.52;100.00
49945;BME280;35838;49.134;9.212;2023-09-18T04:07:23;99242.03;;;21.53;100.00
49945;BME280;35838;49.134;9.212;2023-09-18T04:08:56;99246.47;;;21.52;100.00
49945;BME280;35838;49.134;9.212;2023-09-18T04:10:30;99250.97;;;21.50;100.00
49945;BME280;35838;49.134;9.212;2023-09-18T04:12:01;99264.75;;;21.55;100.00
49945;BME280;35838;49.134;9.212;2023-09-18T04:13:36;99266.66;;;21.53;100.00
49945;BME280;35838;49.134;9.212;2023-09-18T04:15:08;99264.59;;;21.58;100.00
49945;BME280;35838;49.134;9.212;2023-09-18T04:16:42;99297.28;;;21.56;100.00
49945;BME280;35838;49.134;9.212;2023-09-18T04:18:14;99297.88;;;21.61;100.00
49945;BME280;35838;49.134;9.212;2023-09-18T04:19:48;99291.50;;;21.65;100.00
49945;BME280;35838;49.134;9.212;2023-09-18T04:21:19;99290.19;;;21.56;100.00
49945;BME280;35838;49.134;9.212;2023-09-18T04:24:41;99270.84;;;21.72;100.00
49945;BME280;35838;49.134;9.212;2023-09-18T04:26:14;99268.66;;;21.79;100.00
49945;BME280;35838;49.134;9.212;2023-09-18T04:27:46;99268.59;;;21.80;100.00
49945;BME280;35838;49.134;9.212;2023-09-18T04:29:21;99269.91;;;21.87;100.00
49945;BME280;35838;49.134;9.212;2023-09-18T04:30:52;99265.97;;;21.80;100.00
49945;BME280;35838;49.134;9.212;2023-09-18T04:32:27;99258.97;;;21.79;100.00
49945;BME280;35838;49.134;9.212;2023-09-18T04:33:58;99246.03;;;21.89;100.00
49945;BME280;35838;49.134;9.212;2023-09-18T04:35:31;99245.00;;;21.77;100.00
49945;BME280;35838;49.134;9.212;2023-09-18T04:37:02;99238.88;;;21.77;100.00
49945;BME280;35838;49.134;9.212;2023-09-18T04:38:36;99246.13;;;21.73;100.00
49945;BME280;35838;49.134;9.212;2023-09-18T04:40:11;99259.91;;;21.78;100.00
49945;BME280;35838;49.134;9.212;2023-09-18T04:41:44;99248.13;;;21.84;100.00
49945;BME280;35838;49.134;9.212;2023-09-18T04:43:18;99244.06;;;21.92;100.00
49945;BME280;35838;49.134;9.212;2023-09-18T04:44:52;99234.81;;;22.00;100.00
49945;BME280;35838;49.134;9.212;2023-09-18T04:46:23;99222.47;;;22.00;100.00
49945;BME280;35838;49.134;9.212;2023-09-18T04:47:57;99214.06;;;22.08;100.00
49945;BME280;35838;49.134;9.212;2023-09-18T04:49:28;99212.91;;;22.12;100.00
49945;BME280;35838;49.134;9.212;2023-09-18T04:51:02;99198.00;;;22.11;100.00
49945;BME280;35838;49.134;9.212;2023-09-18T04:52:34;99138.53;;;22.18;100.00
49945;BME280;35838;49.134;9.212;2023-09-18T04:54:07;99133.22;;;22.18;100.00
49945;BME280;35838;49.134;9.212;2023-09-18T04:55:41;99134.19;;;22.17;100.00
49945;BME280;35838;49.134;9.212;2023-09-18T04:57:15;99133.44;;;22.15;100.00
49945;BME280;35838;49.134;9.212;2023-09-18T04:58:46;99138.28;;;22.09;100.00
49945;BME280;35838;49.134;9.212;2023-09-18T05:00:20;99122.38;;;21.96;100.00
49945;BME280;35838;49.134;9.212;2023-09-18T05:01:53;99115.09;;;21.99;100.00
49945;BME280;35838;49.134;9.212;2023-09-18T05:03:28;99115.63;;;22.04;100.00
49945;BME280;35838;49.134;9.212;2023-09-18T05:04:59;99116.97;;;21.97;100.00
49945;BME280;35838;49.134;9.212;2023-09-18T05:06:34;99111.91;;;21.94;100.00
49945;BME280;35838;49.134;9.212;2023-09-18T05:08:09;99106.16;;;21.87;100.00
49945;BME280;35838;49.134;9.212;2023-09-18T05:09:40;99107.28;;;21.83;100.00
49945;BME280;35838;49.134;9.212;2023-09-18T05:11:16;99108.97;;;21.84;100.00
49945;BME280;35838;49.134;9.212;2023-09-18T05:12:49;99112.03;;;21.78;100.00
49945;BME280;35838;49.134;9.212;2023-09-18T05:14:29;99112.97;;;21.77;100.00
49945;BME280;35838;49.134;9.212;2023-09-18T05:16:00;99121.00;;;21.75;100.00
49945;BME280;35838;49.134;9.212;2023-09-18T05:17:40;99117.69;;;21.72;100.00
49945;BME280;35838;49.134;9.212;2023-09-18T05:19:17;99092.88;;;21.74;100.00
49945;BME280;35838;49.134;9.212;2023-09-18T05:20:51;99085.81;;;21.75;100.00
49945;BME280;35838;49.134;9.212;2023-09-18T05:22:22;99085.16;;;21.71;100.00
49945;BME280;35838;49.134;9.212;2023-09-18T05:23:56;99113.94;;;21.62;100.00
49945;BME280;35838;49.134;9.212;2023-09-18T05:25:29;99143.22;;;21.28;100.00
49945;BME280;35838;49.134;9.212;2023-09-18T05:27:05;99142.09;;;21.32;100.00
49945;BME280;35838;49.134;9.212;2023-09-18T05:28:39;99138.03;;;21.41;100.00
49945;BME280;35838;49.134;9.212;2023-09-18T05:30:11;99134.00;;;21.50;100.00
49945;BME280;35838;49.134;9.212;2023-09-18T05:31:46;99152.19;;;21.54;100.00
49945;BME280;35838;49.134;9.212;2023-09-18T05:33:17;99140.53;;;21.58;100.00
49945;BME280;35838;49.134;9.212;2023-09-18T05:34:51;99147.84;;;21.53;100.00
49945;BME280;35838;49.134;9.212;2023-09-18T05:36:22;99147.75;;;21.55;100.00
49945;BME280;35838;49.134;9.212;2023-09-18T05:37:55;99150.97;;;21.60;100.00
49945;BME280;35838;49.134;9.212;2023-09-18T05:39:27;99159.03;;;21.42;100.00
49945;BME280;35838;49.134;9.212;2023-09-18T05:41:01;99146.13;;;21.38;100.00
49945;BME280;35838;49.134;9.212;2023-09-18T05:42:35;99143.03;;;21.45;100.00
49945;BME280;35838;49.134;9.212;2023-09-18T05:44:09;99141.16;;;21.48;100.00
49945;BME280;35838;49.134;9.212;2023-09-18T05:45:41;99169.53;;;21.44;100.00
49945;BME280;35838;49.134;9.212;2023-09-18T05:47:14;99185.16;;;21.47;100.00
49945;BME280;35838;49.134;9.212;2023-09-18T05:48:45;99171.69;;;21.52;100.00
49945;BME280;35838;49.134;9.212;2023-09-18T05:50:19;99160.84;;;21.56;100.00
49945;BME280;35838;49.134;9.212;2023-09-18T05:51:50;99171.16;;;21.61;100.00
49945;BME280;35838;49.134;9.212;2023-09-18T05:53:24;99168.34;;;21.64;100.00
49945;BME280;35838;49.134;9.212;2023-09-18T05:54:55;99165.59;;;21.66;100.00
49945;BME280;35838;49.134;9.212;2023-09-18T05:56:28;99174.00;;;21.58;100.00
49945;BME280;35838;49.134;9.212;2023-09-18T05:58:04;99185.75;;;21.52;100.00
49945;BME280;35838;49.134;9.212;2023-09-18T05:59:38;99176.78;;;21.55;100.00
49945;BME280;35838;49.134;9.212;2023-09-18T06:01:10;99189.97;;;21.55;100.00
49945;BME280;35838;49.134;9.212;2023-09-18T06:02:44;99182.34;;;21.50;100.00
49945;BME280;35838;49.134;9.212;2023-09-18T06:04:16;99186.59;;;21.53;100.00
49945;BME280;35838;49.134;9.212;2023-09-18T06:05:50;99189.75;;;21.59;100.00
49945;BME280;35838;49.134;9.212;2023-09-18T06:07:21;99184.47;;;21.59;100.00
49945;BME280;35838;49.134;9.212;2023-09-18T06:08:54;99184.72;;;21.55;100.00
49945;BME280;35838;49.134;9.212;2023-09-18T06:10:28;99179.28;;;21.58;100.00
49945;BME280;35838;49.134;9.212;2023-09-18T06:11:59;99173.09;;;21.57;100.00
49945;BME280;35838;49.134;9.212;2023-09-18T06:13:38;99175.28;;;21.51;100.00
49945;BME280;35838;49.134;9.212;2023-09-18T06:15:11;99181.81;;;21.59;100.00
49945;BME280;35838;49.134;9.212;2023-09-18T06:16:43;99179.72;;;21.65;100.00
49945;BME280;35838;49.134;9.212;2023-09-18T06:18:16;99180.22;;;21.71;100.00
49945;BME280;35838;49.134;9.212;2023-09-18T06:19:47;99177.66;;;21.70;100.00
49945;BME280;35838;49.134;9.212;2023-09-18T06:21:21;99178.16;;;21.77;100.00
49945;BME280;35838;49.134;9.212;2023-09-18T06:22:55;99166.72;;;21.76;100.00
49945;BME280;35838;49.134;9.212;2023-09-18T06:24:26;99161.25;;;21.79;100.00
49945;BME280;35838;49.134;9.212;2023-09-18T06:26:00;99151.53;;;21.80;100.00
49945;BME280;35838;49.134;9.212;2023-09-18T06:27:35;99159.16;;;21.84;100.00
49945;BME280;35838;49.134;9.212;2023-09-18T06:29:09;99153.81;;;21.86;100.00
49945;BME280;35838;49.134;9.212;2023-09-18T06:30:44;99160.41;;;21.79;100.00
49945;BME280;35838;49.134;9.212;2023-09-18T06:32:18;99159.16;;;21.84;100.00
49945;BME280;35838;49.134;9.212;2023-09-18T06:33:49;99165.22;;;21.86;100.00
49945;BME280;35838;49.134;9.212;2023-09-18T06:35:22;99161.81;;;21.84;100.00
49945;BME280;35838;49.134;9.212;2023-09-18T06:36:53;99174.94;;;21.86;100.00
49945;BME280;35838;49.134;9.212;2023-09-18T06:38:27;99174.06;;;21.85;100.00
49945;BME280;35838;49.134;9.212;2023-09-18T06:39:58;99175.31;;;21.65;100.00
49945;BME280;35838;49.134;9.212;2023-09-18T06:41:34;99183.91;;;21.69;100.00
49945;BME280;35838;49.134;9.212;2023-09-18T06:43:05;99194.47;;;21.69;100.00
49945;BME280;35838;49.134;9.212;2023-09-18T06:44:41;99191.97;;;21.51;100.00
49945;BME280;35838;49.134;9.212;2023-09-18T06:46:15;99207.84;;;21.66;100.00
49945;BME280;35838;49.134;9.212;2023-09-18T06:47:46;99206.38;;;21.45;100.00
49945;BME280;35838;49.134;9.212;2023-09-18T06:49:20;99201.69;;;21.51;100.00
49945;BME280;35838;49.134;9.212;2023-09-18T06:50:51;99204.03;;;21.55;100.00
49945;BME280;35838;49.134;9.212;2023-09-18T06:52:25;99218.31;;;21.67;100.00
49945;BME280;35838;49.134;9.212;2023-09-18T06:53:57;99205.13;;;21.67;100.00
49945;BME280;35838;49.134;9.212;2023-09-18T06:55:33;99215.69;;;21.67;100.00
49945;BME280;35838;49.134;9.212;2023-09-18T06:57:06;99207.84;;;21.66;100.00
49945;BME280;35838;49.134;9.212;2023-09-18T06:58:37;99203.84;;;21.44;100.00
49945;BME280;35838;49.134;9.212;2023-09-18T07:00:14;99213.75;;;21.40;100.00
49945;BME280;35838;49.134;9.212;2023-09-18T07:01:45;99213.63;;;21.42;100.00
49945;BME280;35838;49.134;9.212;2023-09-18T07:03:19;99213.63;;;21.42;100.00
49945;BME280;35838;49.134;9.212;2023-09-18T07:04:50;99214.03;;;21.50;100.00
49945;BME280;35838;49.134;9.212;2023-09-18T07:06:24;99213.66;;;21.56;100.00
49945;BME280;35838;49.134;9.212;2023-09-18T07:07:55;99226.81;;;21.58;100.00
49945;BME280;35838;49.134;9.212;2023-09-18T07:09:29;99220.84;;;21.54;100.00
49945;BME280;35838;49.134;9.212;2023-09-18T07:11:00;99219.13;;;21.53;100.00
49945;BME280;35838;49.134;9.212;2023-09-18T07:12:33;99209.91;;;21.60;100.00
49945;BME280;35838;49.134;9.212;2023-09-18T07:14:07;99208.78;;;21.65;100.00
49945;BME280;35838;49.134;9.212;2023-09-18T07:15:41;99213.03;;;21.67;100.00
49945;BME280;35838;49.134;9.212;2023-09-18T07:17:15;99219.72;;;21.73;100.00
49945;BME280;35838;49.134;9.212;2023-09-18T07:18:46;99219.16;;;21.82;100.00
49945;BME280;35838;49.134;9.212;2023-09-18T07:20:20;99223.31;;;21.86;100.00
49945;BME280;35838;49.134;9.212;2023-09-18T07:21:53;99223.78;;;21.93;100.00
49945;BME280;35838;49.134;9.212;2023-09-18T07:23:27;99224.91;;;21.89;100.00
49945;BME280;35838;49.134;9.212;2023-09-18T07:24:58;99230.66;;;21.96;100.00
49945;BME280;35838;49.134;9.212;2023-09-18T07:26:31;99240.09;;;22.00;100.00
49945;BME280;35838;49.134;9.212;2023-09-18T07:28:03;99247.34;;;21.96;100.00
49945;BME280;35838;49.134;9.212;2023-09-18T07:29:37;99256.50;;;21.76;100.00
49945;BME280;35838;49.134;9.212;2023-09-18T07:31:11;99259.63;;;21.68;100.00
49945;BME280;35838;49.134;9.212;2023-09-18T07:32:45;99267.94;;;21.77;100.00
49945;BME280;35838;49.134;9.212;2023-09-18T07:34:16;99270.38;;;21.65;100.00
49945;BME280;35838;49.134;9.212;2023-09-18T07:35:50;99269.31;;;21.68;100.00
49945;BME280;35838;49.134;9.212;2023-09-18T07:37:25;99267.84;;;21.78;100.00
49945;BME280;35838;49.134;9.212;2023-09-18T07:38:56;99271.03;;;21.83;100.00
49945;BME280;35838;49.134;9.212;2023-09-18T07:40:29;99275.28;;;21.71;100.00
49945;BME280;35838;49.134;9.212;2023-09-18T07:42:00;99274.06;;;21.77;100.00
49945;BME280;35838;49.134;9.212;2023-09-18T07:43:34;99272.16;;;21.94;100.00
49945;BME280;35838;49.134;9.212;2023-09-18T07:45:06;99274.25;;;22.03;100.00
49945;BME280;35838;49.134;9.212;2023-09-18T07:46:42;99281.06;;;22.07;100.00
49945;BME280;35838;49.134;9.212;2023-09-18T07:48:16;99276.59;;;22.07;100.00
49945;BME280;35838;49.134;9.212;2023-09-18T07:49:50;99276.59;;;22.07;100.00
49945;BME280;35838;49.134;9.212;2023-09-18T07:51:24;99280.69;;;21.99;100.00
49945;BME280;35838;49.134;9.212;2023-09-18T07:52:58;99276.13;;;22.01;100.00
49945;BME280;35838;49.134;9.212;2023-09-18T07:54:29;99292.66;;;21.90;100.00
49945;BME280;35838;49.134;9.212;2023-09-18T07:56:03;99300.47;;;21.77;100.00
49945;BME280;35838;49.134;9.212;2023-09-18T07:57:35;99295.34;;;21.74;100.00
49945;BME280;35838;49.134;9.212;2023-09-18T07:59:09;99303.41;;;21.56;100.00
49945;BME280;35838;49.134;9.212;2023-09-18T08:00:41;99308.84;;;21.69;100.00
49945;BME280;35838;49.134;9.212;2023-09-18T08:02:17;99312.25;;;21.55;100.00
49945;BME280;35838;49.134;9.212;2023-09-18T08:03:48;99311.75;;;21.65;100.00
49945;BME280;35838;49.134;9.212;2023-09-18T08:05:22;99309.72;;;21.54;100.00
49945;BME280;35838;49.134;9.212;2023-09-18T08:06:53;99324.50;;;21.42;100.00
49945;BME280;35838;49.134;9.212;2023-09-18T08:08:27;99320.38;;;21.52;100.00
49945;BME280;35838;49.134;9.212;2023-09-18T08:09:58;99308.53;;;21.59;100.00
49945;BME280;35838;49.134;9.212;2023-09-18T08:11:31;99301.38;;;21.62;100.00
49945;BME280;35838;49.134;9.212;2023-09-18T08:13:03;99298.94;;;21.73;100.00
49945;BME280;35838;49.134;9.212;2023-09-18T08:14:37;99293.00;;;21.69;100.00
49945;BME280;35838;49.134;9.212;2023-09-18T08:16:08;99280.28;;;21.62;100.00
49945;BME280;35838;49.134;9.212;2023-09-18T08:17:44;99284.91;;;21.56;100.00
49945;BME280;35838;49.134;9.212;2023-09-18T08:19:17;99299.69;;;21.75;100.00
49945;BME280;35838;49.134;9.212;2023-09-18T08:20:51;99300.00;;;21.85;100.00
49945;BME280;35838;49.134;9.212;2023-09-18T08:22:25;99297.47;;;21.98;100.00
49945;BME280;35838;49.134;9.212;2023-09-18T08:23:56;99298.03;;;21.88;100.00
49945;BME280;35838;49.134;9.212;2023-09-18T08:25:29;99300.13;;;21.98;100.00
49945;BME280;35838;49.134;9.212;2023-09-18T08:27:03;99296.03;;;22.06;100.00
49945;BME280;35838;49.134;9.212;2023-09-18T08:28:34;99286.34;;;22.07;100.00
49945;BME280;35838;49.134;9.212;2023-09-18T08:30:14;99282.75;;;22.08;100.00
49945;BME280;35838;49.134;9.212;2023-09-18T08:31:45;99282.53;;;22.11;100.00
49945;BME280;35838;49.134;9.212;2023-09-18T08:34:56;99263.94;;;22.13;100.00
49945;BME280;35838;49.134;9.212;2023-09-18T08:36:30;99266.59;;;22.13;100.00
49945;BME280;35838;49.134;9.212;2023-09-18T08:38:03;99275.19;;;22.16;100.00
49945;BME280;35838;49.134;9.212;2023-09-18T08:39:37;99292.94;;;22.14;100.00
49945;BME280;35838;49.134;9.212;2023-09-18T08:41:11;99297.25;;;22.01;100.00
49945;BME280;35838;49.134;9.212;2023-09-18T08:42:46;99301.03;;;22.11;100.00
49945;BME280;35838;49.134;9.212;2023-09-18T08:44:17;99304.19;;;22.03;100.00
49945;BME280;35838;49.134;9.212;2023-09-18T08:45:52;99299.06;;;21.86;100.00
49945;BME280;35838;49.134;9.212;2023-09-18T08:47:31;99295.84;;;21.81;100.00
49945;BME280;35838;49.134;9.212;2023-09-18T08:49:02;99298.47;;;21.66;100.00
49945;BME280;35838;49.134;9.212;2023-09-18T08:50:40;99302.34;;;21.75;100.00
49945;BME280;35838;49.134;9.212;2023-09-18T08:52:11;99305.47;;;21.67;100.00
49945;BME280;35838;49.134;9.212;2023-09-18T08:53:46;99300.19;;;21.82;100.00
49945;BME280;35838;49.134;9.212;2023-09-18T08:55:17;99294.41;;;21.60;100.00
49945;BME280;35838;49.134;9.212;2023-09-18T08:56:51;99294.41;;;21.60;100.00
49945;BME280;35838;49.134;9.212;2023-09-18T08:58:22;99293.75;;;21.71;100.00
49945;BME280;35838;49.134;9.212;2023-09-18T08:59:56;99302.28;;;21.91;100.00
49945;BME280;35838;49.134;9.212;2023-09-18T09:01:28;99304.47;;;21.99;100.00
49945;BME280;35838;49.134;9.212;2023-09-18T09:03:02;99305.13;;;22.02;100.00
49945;BME280;35838;49.134;9.212;2023-09-18T09:04:37;99298.28;;;22.13;100.00
49945;BME280;35838;49.134;9.212;2023-09-18T09:06:11;99297.19;;;22.17;100.00
49945;BME280;35838;49.134;9.212;2023-09-18T09:07:44;99301.41;;;22.19;100.00
49945;BME280;35838;49.134;9.212;2023-09-18T09:09:16;99298.69;;;22.21;100.00
49945;BME280;35838;49.134;9.212;2023-09-18T09:10:50;99303.13;;;22.20;100.00
49945;BME280;35838;49.134;9.212;2023-09-18T09:14:10;99317.09;;;22.22;100.00
49945;BME280;35838;49.134;9.212;2023-09-18T09:15:44;99328.50;;;22.09;100.00
49945;BME280;35838;49.134;9.212;2023-09-18T09:17:18;99339.41;;;21.88;100.00
49945;BME280;35838;49.134;9.212;2023-09-18T09:18:50;99355.38;;;22.01;100.00
49945;BME280;35838;49.134;9.212;2023-09-18T09:20:24;99357.09;;;22.02;100.00
49945;BME280;35838;49.134;9.212;2023-09-18T09:21:57;99357.19;;;22.00;100.00
49945;BME280;35838;49.134;9.212;2023-09-18T09:23:44;99353.22;;;21.93;100.00
49945;BME280;35838;49.134;9.212;2023-09-18T09:25:22;99354.59;;;21.84;100.00
49945;BME280;35838;49.134;9.212;2023-09-18T09:26:57;99359.56;;;21.90;100.00
49945;BME280;35838;49.134;9.212;2023-09-18T09:28:31;99362.13;;;21.76;100.00
49945;BME280;35838;49.134;9.212;2023-09-18T09:30:05;99369.13;;;21.77;100.00
49945;BME280;35838;49.134;9.212;2023-09-18T09:31:36;99381.41;;;21.78;100.00
49945;BME280;35838;49.134;9.212;2023-09-18T09:33:11;99385.13;;;21.74;100.00
49945;BME280;35838;49.134;9.212;2023-09-18T09:34:45;99392.13;;;21.75;100.00
49945;BME280;35838;49.134;9.212;2023-09-18T09:36:16;99380.47;;;21.79;100.00
49945;BME280;35838;49.134;9.212;2023-09-18T09:37:53;99382.59;;;21.72;100.00
49945;BME280;35838;49.134;9.212;2023-09-18T09:39:26;99383.44;;;21.73;100.00
49945;BME280;35838;49.134;9.212;2023-09-18T09:41:00;99372.31;;;21.68;100.00
49945;BME280;35838;49.134;9.212;2023-09-18T09:42:31;99366.47;;;21.63;100.00
49945;BME280;35838;49.134;9.212;2023-09-18T09:44:11;99355.38;;;21.56;100.00
49945;BME280;35838;49.134;9.212;2023-09-18T09:45:46;99361.75;;;21.52;100.00
49945;BME280;35838;49.134;9.212;2023-09-18T09:47:18;99372.78;;;21.44;100.00
49945;BME280;35838;49.134;9.212;2023-09-18T09:48:58;99383.34;;;21.44;100.00
49945;BME280;35838;49.134;9.212;2023-09-18T09:50:30;99389.91;;;21.37;100.00
49945;BME280;35838;49.134;9.212;2023-09-18T09:52:04;99379.41;;;21.35;100.00
49945;BME280;35838;49.134;9.212;2023-09-18T09:53:51;99379.88;;;21.27;100.00
49945;BME280;35838;49.134;9.212;2023-09-18T09:55:25;99366.69;;;21.27;100.00
49945;BME280;35838;49.134;9.212;2023-09-18T09:56:56;99355.19;;;21.28;100.00
49945;BME280;35838;49.134;9.212;2023-09-18T09:58:35;99351.78;;;21.26;100.00
49945;BME280;35838;49.134;9.212;2023-09-18T10:00:07;99348.09;;;21.29;100.00
49945;BME280;35838;49.134;9.212;2023-09-18T10:01:56;99351.69;;;21.28;100.00
49945;BME280;35838;49.134;9.212;2023-09-18T10:03:31;99351.94;;;21.23;100.00
49945;BME280;35838;49.134;9.212;2023-09-18T10:05:04;99344.19;;;21.20;100.00
49945;BME280;35838;49.134;9.212;2023-09-18T10:06:37;99345.38;;;21.31;100.00
49945;BME280;35838;49.134;9.212;2023-09-18T10:08:12;99345.47;;;21.29;100.00
49945;BME280;35838;49.134;9.212;2023-09-18T10:09:50;99342.72;;;21.31;100.00
49945;BME280;35838;49.134;9.212;2023-09-18T10:11:21;99344.97;;;21.22;100.00
49945;BME280;35838;49.134;9.212;2023-09-18T10:12:58;99335.84;;;21.28;100.00
49945;BME280;35838;49.134;9.212;2023-09-18T10:14:32;99329.53;;;21.31;100.00
49945;BME280;35838;49.134;9.212;2023-09-18T10:16:06;99335.41;;;21.36;100.00
49945;BME280;35838;49.134;9.212;2023-09-18T10:17:38;99337.84;;;21.39;100.00
49945;BME280;35838;49.134;9.212;2023-09-18T10:19:17;99328.31;;;21.52;100.00
49945;BME280;35838;49.134;9.212;2023-09-18T10:20:56;99338.75;;;21.54;100.00
49945;BME280;35838;49.134;9.212;2023-09-18T10:22:33;99331.59;;;21.56;100.00
49945;BME280;35838;49.134;9.212;2023-09-18T10:24:11;99321.56;;;21.63;100.00
49945;BME280;35838;49.134;9.212;2023-09-18T10:25:52;99327.84;;;21.60;100.00
49945;BME280;35838;49.134;9.212;2023-09-18T10:27:28;99324.53;;;21.56;100.00
49945;BME280;35838;49.134;9.212;2023-09-18T10:28:59;99326.09;;;21.60;100.00
49945;BME280;35838;49.134;9.212;2023-09-18T10:30:33;99325.91;;;21.64;100.00
49945;BME280;35838;49.134;9.212;2023-09-18T10:32:06;99328.88;;;21.57;100.00
49945;BME280;35838;49.134;9.212;2023-09-18T10:33:40;99334.63;;;21.50;100.00
49945;BME280;35838;49.134;9.212;2023-09-18T10:35:12;99341.25;;;21.41;100.00
49945;BME280;35838;49.134;9.212;2023-09-18T10:36:46;99335.00;;;21.27;100.00
49945;BME280;35838;49.134;9.212;2023-09-18T10:38:17;99340.09;;;21.31;100.00
49945;BME280;35838;49.134;9.212;2023-09-18T10:39:51;99336.44;;;21.33;100.00
49945;BME280;35838;49.134;9.212;2023-09-18T10:41:29;99350.38;;;21.35;100.00
49945;BME280;35838;49.134;9.212;2023-09-18T10:43:00;99346.72;;;21.38;100.00
49945;BME280;35838;49.134;9.212;2023-09-18T10:44:36;99361.72;;;21.37;100.00
49945;BME280;35838;49.134;9.212;2023-09-18T10:46:10;99363.78;;;21.32;100.00
49945;BME280;35838;49.134;9.212;2023-09-18T10:47:44;99357.47;;;21.35;100.00